Time;durP1;ratioP1;P1;durP2;ratioP2;P2;SDS_P1;SDS_P2;PMS_P1;PMS_P2;Temp;Humidity;BMP_temperature;BMP_pressure;BME280_temperature;BME280_humidity;BME280_pressure;Samples;Min_cycle;Max_cycle;Signal;HPM_P1;HPM_P2
2021/11/09 00:01:02;;;;;;;30.70;16.60;;;11.90;87.90;;;;;;5079756;28;20059;-80
2021/11/09 00:03:36;;;;;;;27.27;15.75;;;11.90;88.00;;;;;;5078329;28;20028;-79
2021/11/09 00:08:56;;;;;;;23.40;14.70;;;11.90;88.00;;;;;;5079517;28;20458;-80
2021/11/09 00:11:24;;;;;;;25.90;15.73;;;11.90;87.90;;;;;;5079628;28;20021;-80
2021/11/09 00:13:50;;;;;;;28.17;15.70;;;11.90;87.90;;;;;;5079431;28;20055;-80
2021/11/09 00:16:16;;;;;;;30.08;15.73;;;11.90;88.00;;;;;;5079548;28;20020;-80
2021/11/09 00:18:42;;;;;;;27.65;15.35;;;11.90;87.90;;;;;;5078030;28;20116;-80
2021/11/09 00:21:08;;;;;;;22.27;14.13;;;11.90;87.80;;;;;;5079494;28;20044;-80
2021/11/09 00:23:34;;;;;;;28.80;16.05;;;11.90;87.90;;;;;;5079148;28;20036;-80
2021/11/09 00:25:59;;;;;;;27.90;16.00;;;11.90;88.10;;;;;;5077797;28;20017;-80
2021/11/09 00:28:25;;;;;;;26.77;14.40;;;11.90;88.10;;;;;;5090860;28;20033;-80
2021/11/09 00:30:51;;;;;;;26.75;15.25;;;11.90;88.00;;;;;;5079178;28;20475;-80
2021/11/09 00:33:17;;;;;;;25.35;15.23;;;11.90;88.00;;;;;;5077746;28;20110;-80
2021/11/09 00:35:43;;;;;;;29.00;16.00;;;11.90;87.90;;;;;;5079183;28;20020;-80
2021/11/09 00:38:11;;;;;;;29.30;16.98;;;11.90;87.90;;;;;;5079025;28;20032;-80
2021/11/09 00:40:39;;;;;;;45.92;22.30;;;11.90;87.90;;;;;;5078976;28;20024;-80
2021/11/09 00:43:07;;;;;;;44.33;22.80;;;11.90;87.90;;;;;;5078888;28;20025;-80
2021/11/09 00:45:34;;;;;;;38.10;19.70;;;11.90;87.90;;;;;;5077352;28;20024;-80
2021/11/09 00:48:00;;;;;;;35.85;19.20;;;11.90;87.90;;;;;;5078802;28;20024;-80
2021/11/09 00:50:27;;;;;;;36.05;16.85;;;11.90;87.90;;;;;;5069159;28;20097;-80
2021/11/09 00:52:53;;;;;;;30.67;17.17;;;11.90;87.90;;;;;;5074980;28;20021;-80
2021/11/09 00:55:20;;;;;;;27.50;14.95;;;11.90;87.90;;;;;;5078702;28;20025;-80
2021/11/09 00:57:47;;;;;;;24.58;14.90;;;11.90;88.00;;;;;;5078685;28;20025;-80
2021/11/09 01:00:18;;;;;;;26.42;14.68;;;11.90;87.90;;;;;;5078424;28;20035;-80
2021/11/09 01:02:45;;;;;;;27.17;15.98;;;11.90;88.00;;;;;;5077103;28;20036;-80
2021/11/09 01:05:12;;;;;;;26.23;16.20;;;11.90;88.00;;;;;;5077191;28;20024;-80
2021/11/09 01:07:38;;;;;;;30.85;16.95;;;11.90;88.10;;;;;;5078371;28;20025;-80
2021/11/09 01:10:06;;;;;;;28.13;15.60;;;11.90;88.10;;;;;;5078383;28;20040;-80
2021/11/09 01:12:33;;;;;;;27.45;16.83;;;11.90;88.10;;;;;;5078225;28;20031;-80
2021/11/09 01:14:59;;;;;;;26.98;15.43;;;11.90;88.10;;;;;;5078137;28;20016;-79
2021/11/09 01:17:26;;;;;;;26.10;15.90;;;11.90;88.10;;;;;;5078219;28;20027;-80
2021/11/09 01:19:52;;;;;;;24.02;14.82;;;11.80;88.20;;;;;;5078412;28;20033;-80
2021/11/09 01:22:18;;;;;;;25.67;15.80;;;11.80;88.10;;;;;;5077976;28;20024;-80
2021/11/09 01:24:44;;;;;;;25.40;14.95;;;11.80;88.10;;;;;;5078175;28;20023;-80
2021/11/09 01:27:10;;;;;;;27.60;16.30;;;11.80;88.00;;;;;;5077562;28;20074;-80
2021/11/09 01:29:36;;;;;;;28.02;16.58;;;11.80;88.00;;;;;;5077611;28;20090;-80
2021/11/09 01:32:02;;;;;;;29.38;16.67;;;11.90;88.20;;;;;;5077531;28;20573;-80
2021/11/09 01:34:28;;;;;;;30.63;15.63;;;11.80;88.20;;;;;;5078041;28;20028;-80
2021/11/09 01:36:55;;;;;;;33.95;16.65;;;11.80;88.80;;;;;;5076391;28;20423;-80
2021/11/09 01:39:21;;;;;;;41.47;20.75;;;11.80;88.20;;;;;;5077838;28;20025;-80
2021/11/09 01:41:47;;;;;;;35.22;20.08;;;11.80;88.20;;;;;;5077754;28;20031;-80
2021/11/09 01:44:14;;;;;;;39.13;19.58;;;11.80;88.30;;;;;;5076154;28;20114;-80
2021/11/09 01:46:40;;;;;;;35.75;20.02;;;11.80;88.30;;;;;;5077862;28;20037;-80
2021/11/09 01:49:07;;;;;;;32.88;18.27;;;11.80;88.20;;;;;;5077982;28;20025;-80
2021/11/09 01:51:33;;;;;;;30.98;18.88;;;11.80;88.20;;;;;;5063867;28;20024;-80
2021/11/09 01:54:00;;;;;;;33.22;17.30;;;11.80;88.20;;;;;;5077643;28;20028;-80
2021/11/09 01:56:28;;;;;;;29.20;17.15;;;11.80;88.20;;;;;;5077546;28;20024;-80
2021/11/09 01:58:55;;;;;;;30.55;17.00;;;11.80;88.20;;;;;;5077467;28;20032;-80
2021/11/09 02:01:22;;;;;;;25.92;16.08;;;11.80;88.30;;;;;;5077544;28;20055;-80
2021/11/09 02:03:51;;;;;;;26.33;15.55;;;11.80;88.30;;;;;;5077353;28;20029;-80
2021/11/09 02:06:18;;;;;;;24.77;15.30;;;11.80;88.30;;;;;;5077594;28;20049;-80
2021/11/09 02:08:44;;;;;;;27.75;16.40;;;11.80;88.30;;;;;;5077461;28;20099;-80
2021/11/09 02:11:12;;;;;;;28.88;15.93;;;11.80;88.20;;;;;;5077466;28;20017;-80
2021/11/09 02:13:39;;;;;;;25.65;15.57;;;11.80;88.30;;;;;;5077119;28;20454;-80
2021/11/09 02:16:05;;;;;;;28.00;16.60;;;11.80;88.40;;;;;;5077710;28;20032;-80
2021/11/09 02:18:31;;;;;;;23.88;15.55;;;11.80;88.30;;;;;;5077428;28;20029;-80
2021/11/09 02:21:10;;;;;;;26.85;15.48;;;11.70;88.20;;;;;;5077757;28;20040;-80
2021/11/09 02:23:38;;;;;;;24.55;15.02;;;11.80;88.30;;;;;;5076996;28;20028;-80
2021/11/09 02:26:05;;;;;;;30.42;15.77;;;11.80;88.30;;;;;;5076916;28;20039;-80
2021/11/09 02:28:31;;;;;;;27.00;16.02;;;11.80;88.30;;;;;;5076778;28;20028;-80
2021/11/09 02:30:57;;;;;;;35.33;17.17;;;11.70;88.20;;;;;;5077313;28;20092;-80
2021/11/09 02:33:23;;;;;;;32.55;17.58;;;11.70;88.20;;;;;;5077122;28;20021;-80
2021/11/09 02:35:50;;;;;;;26.50;15.63;;;11.70;88.20;;;;;;5077084;28;20149;-80
2021/11/09 02:38:16;;;;;;;28.13;16.45;;;11.70;88.20;;;;;;5077079;28;20142;-80
2021/11/09 02:40:42;;;;;;;27.73;16.35;;;11.70;88.10;;;;;;5077084;28;20104;-80
2021/11/09 02:43:11;;;;;;;27.92;16.05;;;11.70;88.00;;;;;;5079398;28;20028;-80
2021/11/09 02:46:03;;;;;;;29.98;16.60;;;11.70;88.10;;;;;;5081011;28;20021;-80
2021/11/09 02:48:32;;;;;;;29.65;16.10;;;11.70;88.00;;;;;;5069587;28;20442;-80
2021/11/09 02:51:12;;;;;;;25.52;16.20;;;11.70;88.00;;;;;;5067528;28;20080;-79
2021/11/09 02:53:53;;;;;;;26.63;15.40;;;11.70;88.00;;;;;;5080838;28;20424;-80
2021/11/09 02:58:52;;;;;;;31.30;16.35;;;11.70;88.20;;;;;;5080759;28;20059;-80
2021/11/09 03:01:28;;;;;;;29.02;15.90;;;11.70;88.10;;;;;;5080767;28;20487;-80
2021/11/09 03:09:06;;;;;;;28.13;16.05;;;11.60;88.20;;;;;;5080934;28;20458;-80
2021/11/09 03:11:33;;;;;;;25.73;14.65;;;11.60;88.20;;;;;;5080756;28;20044;-80
2021/11/09 03:14:00;;;;;;;29.20;17.20;;;11.60;88.30;;;;;;5080453;28;20028;-79
2021/11/09 03:16:31;;;;;;;33.72;17.33;;;11.60;88.60;;;;;;5080692;28;20055;-79
2021/11/09 03:19:18;;;;;;;30.00;17.42;;;11.60;88.60;;;;;;5079153;28;20097;-80
2021/11/09 03:46:46;;;;;;;21.75;13.60;;;11.60;88.10;;;;;;5067086;28;20113;-80
2021/11/09 03:49:13;;;;;;;24.67;14.07;;;11.60;88.00;;;;;;5078787;28;20016;-80
2021/11/09 03:51:39;;;;;;;21.63;13.50;;;11.60;88.20;;;;;;5065295;28;20025;-79
2021/11/09 03:54:11;;;;;;;26.05;13.93;;;11.60;88.10;;;;;;5078270;28;20025;-80
2021/11/09 03:56:49;;;;;;;24.42;14.93;;;11.60;88.20;;;;;;5066288;28;20024;-79
2021/11/09 04:02:25;;;;;;;21.30;12.27;;;11.60;88.30;;;;;;5024156;28;20041;-79
2021/11/09 04:04:54;;;;;;;21.08;12.45;;;11.60;88.30;;;;;;5067331;28;20020;-80
2021/11/09 04:07:32;;;;;;;20.67;12.75;;;11.60;88.40;;;;;;5078505;28;20052;-80
2021/11/09 04:20:49;;;;;;;27.60;16.27;;;11.60;88.60;;;;;;5066989;28;20036;-80
2021/11/09 04:36:50;;;;;;;33.33;18.27;;;11.50;88.80;;;;;;5032650;28;1296997;-80
2021/11/09 05:08:58;;;;;;;25.15;13.90;;;11.50;88.50;;;;;;5078457;28;20032;-79
2021/11/09 05:11:24;;;;;;;20.35;13.65;;;11.50;88.40;;;;;;5070784;28;20028;-80
2021/11/09 05:13:51;;;;;;;21.95;14.02;;;11.50;88.50;;;;;;5078104;28;20024;-80
2021/11/09 05:16:17;;;;;;;22.35;13.70;;;11.50;88.50;;;;;;5078597;28;20029;-80
2021/11/09 05:18:43;;;;;;;21.70;14.25;;;11.50;88.50;;;;;;5078202;28;20490;-79
2021/11/09 05:21:09;;;;;;;28.08;16.73;;;11.50;88.60;;;;;;5078491;28;20024;-80
2021/11/09 05:23:35;;;;;;;27.33;16.17;;;11.50;88.70;;;;;;5078137;28;20028;-80
2021/11/09 05:26:02;;;;;;;28.58;16.85;;;11.50;88.70;;;;;;5077899;28;20016;-80
2021/11/09 05:28:28;;;;;;;23.90;15.63;;;11.50;88.60;;;;;;5077594;28;20052;-80
2021/11/09 05:30:54;;;;;;;28.85;15.93;;;11.50;88.70;;;;;;5076860;28;20024;-80
2021/11/09 05:33:22;;;;;;;24.85;15.02;;;11.50;88.70;;;;;;5077767;28;20400;-80
2021/11/09 05:35:49;;;;;;;26.52;15.98;;;11.50;88.60;;;;;;5077978;28;20029;-80
2021/11/09 05:38:18;;;;;;;27.60;14.57;;;11.50;88.60;;;;;;5077719;28;20037;-79
2021/11/09 05:40:52;;;;;;;23.92;13.95;;;11.50;88.60;;;;;;5078026;28;20032;-80
2021/11/09 05:43:18;;;;;;;21.52;14.57;;;11.50;88.60;;;;;;5077476;28;20025;-80
2021/11/09 05:45:44;;;;;;;20.83;11.77;;;11.50;88.70;;;;;;5077856;28;20077;-80
2021/11/09 05:48:11;;;;;;;20.13;11.77;;;11.50;88.80;;;;;;5077750;28;20029;-80
2021/11/09 05:50:36;;;;;;;21.42;11.63;;;11.50;89.00;;;;;;5066568;28;20021;-80
2021/11/09 05:53:02;;;;;;;23.75;12.30;;;11.50;89.00;;;;;;5075125;28;20044;-80
2021/11/09 05:55:28;;;;;;;20.70;10.63;;;11.50;88.90;;;;;;5077785;28;20043;-80
2021/11/09 05:57:54;;;;;;;22.10;12.00;;;11.50;88.90;;;;;;5077503;28;20130;-80
2021/11/09 06:00:20;;;;;;;17.80;11.00;;;11.50;88.90;;;;;;5077464;28;20028;-80
2021/11/09 06:02:47;;;;;;;17.73;9.43;;;11.40;88.90;;;;;;5077377;28;20031;-80
2021/11/09 06:05:13;;;;;;;17.05;9.57;;;11.50;89.00;;;;;;5077754;28;20031;-78
2021/11/09 06:07:39;;;;;;;17.02;9.35;;;11.40;88.90;;;;;;5077142;28;20029;-80
2021/11/09 06:10:06;;;;;;;22.17;10.23;;;11.40;88.90;;;;;;5075936;28;20107;-76
2021/11/09 06:12:32;;;;;;;17.63;9.93;;;11.50;89.00;;;;;;5077219;28;20032;-79
2021/11/09 06:14:59;;;;;;;20.60;10.52;;;11.40;88.90;;;;;;5077445;28;20027;-79
2021/11/09 06:17:24;;;;;;;21.15;11.32;;;11.50;89.00;;;;;;5077152;28;20035;-80
2021/11/09 06:19:50;;;;;;;17.30;11.15;;;11.40;89.00;;;;;;5077549;28;20060;-80
2021/11/09 06:22:16;;;;;;;19.27;11.90;;;11.40;89.00;;;;;;5075793;28;20035;-80
2021/11/09 06:24:42;;;;;;;22.33;13.75;;;11.40;89.10;;;;;;5077309;28;20060;-79
2021/11/09 06:27:09;;;;;;;22.77;12.75;;;11.50;89.40;;;;;;5076771;28;20036;-81
2021/11/09 06:29:36;;;;;;;18.27;12.35;;;11.40;89.40;;;;;;5075921;28;20028;-83
2021/11/09 06:32:02;;;;;;;22.92;12.20;;;11.40;89.30;;;;;;5077010;28;20024;-82
2021/11/09 06:34:28;;;;;;;24.33;12.75;;;11.40;89.20;;;;;;5077272;28;20032;-83
2021/11/09 06:36:54;;;;;;;21.45;12.95;;;11.40;89.30;;;;;;5075678;28;20102;-81
2021/11/09 06:39:21;;;;;;;22.70;14.50;;;11.40;89.50;;;;;;5077003;28;20033;-79
2021/11/09 06:41:47;;;;;;;22.15;13.82;;;11.40;89.70;;;;;;5076983;28;20481;-82
2021/11/09 06:44:13;;;;;;;22.08;12.18;;;11.40;89.90;;;;;;5075638;28;20031;-80
2021/11/09 06:46:39;;;;;;;20.13;12.68;;;11.40;90.00;;;;;;5077080;28;20084;-80
2021/11/09 06:49:06;;;;;;;18.95;12.48;;;11.40;90.00;;;;;;5077236;28;20020;-80
2021/11/09 06:51:31;;;;;;;24.02;13.35;;;11.40;90.00;;;;;;5063543;28;20048;-80
2021/11/09 06:53:57;;;;;;;24.40;13.48;;;11.40;89.90;;;;;;5076794;28;20024;-80
2021/11/09 06:56:23;;;;;;;18.73;11.55;;;11.30;90.00;;;;;;5075189;28;20029;-80
2021/11/09 06:58:49;;;;;;;21.35;11.95;;;11.30;90.00;;;;;;5075172;28;20032;-80
2021/11/09 07:01:15;;;;;;;26.02;10.63;;;11.30;90.10;;;;;;5074668;28;20234;-80
2021/11/09 07:03:41;;;;;;;17.15;10.35;;;11.30;90.00;;;;;;5076611;28;20134;-80
2021/11/09 07:06:07;;;;;;;13.98;9.38;;;11.30;90.00;;;;;;5076782;28;20032;-80
2021/11/09 07:08:33;;;;;;;20.05;9.98;;;11.30;90.00;;;;;;5077103;28;20032;-80
2021/11/09 07:11:00;;;;;;;17.30;9.88;;;11.30;89.90;;;;;;5076739;28;20020;-80
2021/11/09 07:13:26;;;;;;;19.50;9.82;;;11.30;89.80;;;;;;5076746;28;20027;-80
2021/11/09 07:15:52;;;;;;;18.00;10.70;;;11.30;89.80;;;;;;5076710;28;20024;-80
2021/11/09 07:18:19;;;;;;;19.58;10.25;;;11.30;89.80;;;;;;5075558;28;20514;-80
2021/11/09 07:20:45;;;;;;;17.77;10.55;;;11.30;89.70;;;;;;5076685;28;20029;-80
2021/11/09 07:23:11;;;;;;;17.23;11.00;;;11.30;89.60;;;;;;5077010;28;20036;-80
2021/11/09 07:25:37;;;;;;;22.95;11.52;;;11.30;89.60;;;;;;5075323;28;20503;-80
2021/11/09 07:28:03;;;;;;;22.17;11.80;;;11.30;89.70;;;;;;5076623;28;20388;-79
2021/11/09 07:30:40;;;;;;;16.88;11.02;;;11.30;89.90;;;;;;5078811;28;20020;-80
2021/11/09 07:33:06;;;;;;;19.60;11.85;;;11.30;89.70;;;;;;5078883;28;20116;-80
2021/11/09 07:35:32;;;;;;;21.02;12.23;;;11.30;89.80;;;;;;5080213;28;20056;-79
2021/11/09 07:37:58;;;;;;;21.42;12.05;;;11.30;89.70;;;;;;5080261;28;20024;-80
2021/11/09 07:40:25;;;;;;;21.73;11.43;;;11.30;89.60;;;;;;5080161;28;20025;-80
2021/11/09 07:42:52;;;;;;;19.48;10.77;;;11.30;89.40;;;;;;5080034;28;20020;-80
2021/11/09 07:45:19;;;;;;;19.00;12.30;;;11.40;89.50;;;;;;5078596;28;20056;-80
2021/11/09 07:47:45;;;;;;;18.45;12.43;;;11.30;89.50;;;;;;5080006;28;20157;-80
2021/11/09 07:50:12;;;;;;;20.92;11.82;;;11.40;89.50;;;;;;5072329;28;20032;-80
2021/11/09 07:52:38;;;;;;;18.45;11.98;;;11.40;89.50;;;;;;5074321;28;20020;-80
2021/11/09 07:55:06;;;;;;;20.35;11.55;;;11.40;89.50;;;;;;5078611;28;20123;-80
2021/11/09 07:57:43;;;;;;;22.02;11.65;;;11.30;89.50;;;;;;5079892;28;20048;-80
2021/11/09 08:00:21;;;;;;;21.95;12.10;;;11.40;89.50;;;;;;5078381;28;20031;-80
2021/11/09 08:05:35;;;;;;;21.15;10.55;;;11.40;89.40;;;;;;5079990;28;20059;-80
2021/11/09 08:08:07;;;;;;;20.25;11.18;;;11.40;89.40;;;;;;5079661;28;20028;-80
2021/11/09 08:10:33;;;;;;;23.55;11.85;;;11.40;89.50;;;;;;5079340;28;20048;-80
2021/11/09 08:12:59;;;;;;;18.45;10.88;;;11.40;89.50;;;;;;5079603;28;20024;-80
2021/11/09 08:15:25;;;;;;;20.35;11.32;;;11.40;89.50;;;;;;5079316;28;20403;-80
2021/11/09 08:17:51;;;;;;;18.35;11.48;;;11.40;89.40;;;;;;5079815;28;20056;-80
2021/11/09 08:20:17;;;;;;;19.95;10.77;;;11.40;89.50;;;;;;5079426;28;20043;-80
2021/11/09 08:22:43;;;;;;;20.38;11.82;;;11.40;89.50;;;;;;5079811;28;20020;-80
2021/11/09 08:25:08;;;;;;;23.33;11.05;;;11.50;89.70;;;;;;5079092;28;20021;-79
2021/11/09 08:27:34;;;;;;;20.48;11.75;;;11.50;89.60;;;;;;5079137;28;20049;-80
2021/11/09 08:30:00;;;;;;;29.95;12.88;;;11.50;89.70;;;;;;5078966;28;20055;-80
2021/11/09 08:32:26;;;;;;;22.67;12.80;;;11.60;89.80;;;;;;5079305;28;20025;-80
2021/11/09 08:34:53;;;;;;;19.77;12.30;;;11.60;89.70;;;;;;5077863;28;20060;-80
2021/11/09 08:37:20;;;;;;;19.45;11.75;;;11.70;89.80;;;;;;5079174;28;20590;-80
2021/11/09 08:39:46;;;;;;;20.33;11.60;;;11.80;89.90;;;;;;5077759;28;20033;-80
2021/11/09 08:42:17;;;;;;;21.45;11.50;;;11.90;89.90;;;;;;5079013;28;20566;-80
2021/11/09 08:44:52;;;;;;;20.67;11.43;;;12.00;90.00;;;;;;5078612;28;20029;-80
2021/11/09 08:47:25;;;;;;;17.02;9.23;;;12.20;90.00;;;;;;5079172;28;20017;-80
2021/11/09 08:49:52;;;;;;;18.02;9.15;;;12.30;89.70;;;;;;5060955;28;20028;-80
2021/11/09 08:52:21;;;;;;;14.65;8.70;;;12.40;89.20;;;;;;5070693;28;20139;-80
2021/11/09 08:55:11;;;;;;;21.40;10.45;;;12.50;88.80;;;;;;5078788;28;20035;-80
2021/11/09 09:06:00;;;;;;;23.88;12.93;;;12.60;87.40;;;;;;5044650;28;20104;-80
2021/11/09 09:08:26;;;;;;;29.50;14.45;;;12.60;87.40;;;;;;5078485;28;20074;-80
2021/11/09 09:10:52;;;;;;;31.15;14.63;;;12.50;87.20;;;;;;5078054;28;20449;-80
2021/11/09 09:13:19;;;;;;;34.47;17.70;;;12.50;87.00;;;;;;5078183;28;20054;-80
2021/11/09 09:15:45;;;;;;;33.85;17.00;;;12.50;86.80;;;;;;5076915;28;20048;-80
2021/11/09 09:18:11;;;;;;;32.42;17.52;;;12.40;86.50;;;;;;5078331;28;20360;-80
2021/11/09 09:20:43;;;;;;;33.55;18.42;;;12.40;86.70;;;;;;5078003;28;20051;-80
2021/11/09 09:23:15;;;;;;;34.38;16.52;;;12.40;86.90;;;;;;5078346;28;20032;-80
2021/11/09 09:26:09;;;;;;;31.52;16.60;;;12.40;86.90;;;;;;5078020;28;20340;-79
2021/11/09 09:56:04;;;;;;;25.15;12.75;;;13.20;85.60;;;;;;5077431;28;20028;-80
2021/11/09 09:58:30;;;;;;;22.88;12.68;;;13.30;85.50;;;;;;5077375;28;20028;-80
2021/11/09 10:00:58;;;;;;;29.25;13.98;;;13.40;85.10;;;;;;5077544;28;20035;-80
2021/11/09 10:03:41;;;;;;;24.95;13.20;;;13.50;84.90;;;;;;5076264;28;20503;-80
2021/11/09 10:06:08;;;;;;;;;;;13.50;84.50;;;;;;5077863;28;20086;-80
2021/11/09 10:08:41;;;;;;;25.50;12.93;;;13.50;83.80;;;;;;5077407;28;19930;-81
2021/11/09 10:11:25;;;;;;;;;;;13.60;83.20;;;;;;5069320;28;20031;-80
2021/11/09 10:13:50;;;;;;;27.48;12.10;;;13.60;83.10;;;;;;5077204;28;20568;-80
2021/11/09 10:16:16;;;;;;;26.10;12.45;;;13.60;83.20;;;;;;5077461;28;20055;-80
2021/11/09 10:18:43;;;;;;;25.08;12.73;;;13.70;83.40;;;;;;5077332;28;20095;-80
2021/11/09 10:21:10;;;;;;;28.85;12.82;;;13.70;83.50;;;;;;5078001;28;20025;-80
2021/11/09 10:23:36;;;;;;;24.00;13.45;;;13.80;83.20;;;;;;5077133;28;20092;-80
2021/11/09 10:26:17;;;;;;;25.38;12.48;;;13.90;83.00;;;;;;5076796;28;20040;-80
2021/11/09 10:28:44;;;;;;;24.20;12.43;;;13.90;82.70;;;;;;5076811;28;20021;-81
2021/11/09 10:31:12;;;;;;;26.77;12.95;;;13.90;82.70;;;;;;5077258;28;20463;-80
2021/11/09 10:33:42;;;;;;;22.40;12.73;;;14.00;82.60;;;;;;5077098;28;20054;-80
2021/11/09 10:36:25;;;;;;;22.17;12.80;;;14.00;82.60;;;;;;5077026;28;20040;-80
2021/11/09 10:38:52;;;;;;;27.23;13.07;;;14.10;83.20;;;;;;5077185;28;20078;-80
2021/11/09 10:41:18;;;;;;;20.52;12.02;;;14.20;83.50;;;;;;5076130;28;20137;-80
2021/11/09 10:43:45;;;;;;;25.83;12.15;;;14.30;83.40;;;;;;5076743;28;20025;-80
2021/11/09 10:46:29;;;;;;;21.88;12.07;;;14.50;82.90;;;;;;5076985;28;20415;-80
2021/11/09 10:48:55;;;;;;;20.38;10.27;;;14.60;82.20;;;;;;5077324;28;20107;-80
2021/11/09 10:51:23;;;;;;;24.42;11.00;;;14.70;81.70;;;;;;5063408;28;20052;-80
2021/11/09 10:53:57;;;;;;;18.25;10.38;;;14.70;81.80;;;;;;5075532;28;20017;-80
2021/11/09 10:56:37;;;;;;;19.55;10.63;;;14.90;81.50;;;;;;5076890;28;20044;-80
2021/11/09 11:04:34;;;;;;;18.20;10.27;;;15.80;82.90;;;;;;5079458;28;20501;-80
2021/11/09 11:07:03;;;;;;;16.15;9.05;;;16.40;83.40;;;;;;5081046;28;20384;-80
2021/11/09 11:09:29;;;;;;;16.55;7.50;;;17.10;82.20;;;;;;5067427;28;20020;-79
2021/11/09 11:11:58;;;;;;;18.17;9.38;;;17.60;80.60;;;;;;5080639;28;20024;-80
2021/11/09 11:14:29;;;;;;;16.17;10.40;;;18.10;79.80;;;;;;5080443;28;20505;-80
2021/11/09 11:17:04;;;;;;;19.45;10.07;;;18.40;76.80;;;;;;5080699;28;20025;-79
2021/11/09 11:19:34;;;;;;;16.20;10.07;;;18.40;75.70;;;;;;5080714;28;20030;-80
2021/11/09 11:22:11;;;;;;;26.42;11.27;;;18.30;75.70;;;;;;5080706;28;20017;-80
2021/11/09 11:24:39;;;;;;;18.75;10.23;;;18.20;73.60;;;;;;5080549;28;20032;-80
2021/11/09 11:27:07;;;;;;;14.15;8.63;;;18.00;74.00;;;;;;5079824;28;20100;-80
2021/11/09 11:29:36;;;;;;;15.68;8.90;;;17.80;72.70;;;;;;5080283;28;20386;-80
2021/11/09 11:32:04;;;;;;;15.95;8.32;;;17.50;73.10;;;;;;5078758;28;20104;-80
2021/11/09 11:34:30;;;;;;;15.02;8.18;;;17.20;74.00;;;;;;5080228;28;20103;-80
2021/11/09 11:36:57;;;;;;;14.63;8.05;;;17.00;74.40;;;;;;5080269;28;20052;-80
2021/11/09 11:39:25;;;;;;;12.60;7.18;;;16.90;75.20;;;;;;5080028;28;20024;-80
2021/11/09 11:41:59;;;;;;;13.43;7.78;;;16.90;75.70;;;;;;5080441;28;20027;-80
2021/11/09 11:44:26;;;;;;;15.07;8.07;;;17.10;75.80;;;;;;5079831;28;20043;-80
2021/11/09 11:46:58;;;;;;;14.88;8.20;;;17.20;74.80;;;;;;5080150;28;20013;-80
2021/11/09 11:49:47;;;;;;;16.90;9.77;;;17.10;74.50;;;;;;5078615;28;20025;-80
2021/11/09 11:52:40;;;;;;;17.90;9.18;;;16.90;74.60;;;;;;5071116;28;20035;-80
2021/11/09 11:55:25;;;;;;;24.70;12.23;;;16.80;74.80;;;;;;5068182;28;20395;-80
2021/11/09 11:58:07;;;;;;;17.67;11.38;;;16.50;74.20;;;;;;5079724;28;20036;-80
2021/11/09 12:00:51;;;;;;;18.85;12.00;;;16.30;74.80;;;;;;5079972;28;20032;-80
2021/11/09 12:03:23;;;;;;;18.73;11.15;;;16.20;75.70;;;;;;5068892;28;20027;-80
2021/11/09 12:05:55;;;;;;;15.10;9.05;;;16.20;76.50;;;;;;5079559;28;20529;-80
2021/11/09 12:08:43;;;;;;;16.17;10.20;;;16.50;76.70;;;;;;5079972;28;20082;-80
2021/11/09 12:11:36;;;;;;;20.52;9.55;;;16.80;76.60;;;;;;5069958;28;20475;-80
2021/11/09 12:14:03;;;;;;;;;;;17.10;76.00;;;;;;5079540;28;20019;-80
2021/11/09 12:16:48;;;;;;;16.73;9.77;;;17.30;76.30;;;;;;5079949;28;19991;-80
2021/11/09 12:19:37;;;;;;;18.00;9.73;;;17.50;75.80;;;;;;5065863;28;20033;-80
2021/11/09 12:22:10;;;;;;;17.05;9.90;;;17.80;74.90;;;;;;5079471;28;20028;-80
2021/11/09 12:25:00;;;;;;;16.80;10.15;;;17.90;73.50;;;;;;5079347;28;20035;-80
2021/11/09 12:27:47;;;;;;;15.95;10.15;;;18.00;72.90;;;;;;5073517;28;20082;-80
2021/11/09 12:30:39;;;;;;;16.75;9.75;;;18.20;73.00;;;;;;5078953;28;20033;-80
2021/11/09 12:33:17;;;;;;;16.85;9.98;;;18.50;73.80;;;;;;5077808;28;20082;-80
2021/11/09 12:35:49;;;;;;;19.38;9.93;;;18.60;73.00;;;;;;5078026;28;20030;-80
2021/11/09 12:38:15;;;;;;;17.38;10.43;;;18.90;72.10;;;;;;5077711;28;20125;-80
2021/11/09 12:40:53;;;;;;;17.10;10.98;;;19.10;71.90;;;;;;5079276;28;20053;-80
2021/11/09 12:43:24;;;;;;;16.35;10.32;;;19.30;71.40;;;;;;5065741;28;20505;-80
2021/11/09 12:46:14;;;;;;;17.05;10.18;;;19.50;71.50;;;;;;5078905;28;20028;-80
2021/11/09 12:48:49;;;;;;;17.13;9.68;;;19.70;70.50;;;;;;5079235;28;20016;-80
2021/11/09 12:51:18;;;;;;;19.77;11.52;;;19.80;70.70;;;;;;5077303;28;20020;-80
2021/11/09 12:53:45;;;;;;;17.48;11.20;;;20.00;69.70;;;;;;5077372;28;20483;-80
2021/11/09 12:56:25;;;;;;;16.02;10.98;;;20.10;70.20;;;;;;5078697;28;20023;-80
2021/11/09 12:59:02;;;;;;;18.90;10.63;;;20.10;70.20;;;;;;5078673;28;20063;-80
2021/11/09 13:01:42;;;;;;;18.20;12.15;;;20.10;69.00;;;;;;5066459;28;20017;-80
2021/11/09 13:06:59;;;;;;;16.10;10.27;;;20.20;69.40;;;;;;5078773;28;20043;-80
2021/11/09 13:09:48;;;;;;;17.88;9.35;;;20.10;69.10;;;;;;5078361;28;20021;-80
2021/11/09 13:12:17;;;;;;;16.80;11.20;;;20.00;69.20;;;;;;5074700;28;20055;-80
2021/11/09 13:14:48;;;;;;;18.55;11.25;;;19.80;68.80;;;;;;5078118;28;20032;-80
2021/11/09 13:17:23;;;;;;;15.50;10.65;;;19.60;69.50;;;;;;5078311;28;20063;-80
2021/11/09 13:20:15;;;;;;;16.27;11.00;;;19.40;69.60;;;;;;5078489;28;20494;-80
2021/11/09 13:22:53;;;;;;;15.75;10.73;;;19.20;70.10;;;;;;5068259;28;20039;-80
2021/11/09 13:25:26;;;;;;;14.73;10.45;;;18.90;70.20;;;;;;5077769;28;20079;-80
2021/11/09 13:27:52;;;;;;;13.65;10.43;;;18.80;70.30;;;;;;5077230;28;20025;-80
2021/11/09 13:30:21;;;;;;;16.58;10.88;;;18.70;70.80;;;;;;5077869;28;20027;-80
2021/11/09 13:32:55;;;;;;;13.43;10.27;;;18.50;70.70;;;;;;5078159;28;20024;-80
2021/11/09 13:35:35;;;;;;;14.93;10.73;;;18.50;71.40;;;;;;5078249;28;20032;-80
2021/11/09 13:38:21;;;;;;;16.58;10.45;;;18.30;71.70;;;;;;5076558;28;20041;-80
2021/11/09 13:40:59;;;;;;;14.85;10.18;;;18.20;71.40;;;;;;5077609;28;20092;-80
2021/11/09 13:43:31;;;;;;;15.10;9.55;;;17.90;71.50;;;;;;5065304;28;20051;-80
2021/11/09 13:46:15;;;;;;;16.13;10.23;;;17.80;71.70;;;;;;5077631;28;20025;-80
2021/11/09 13:48:46;;;;;;;14.80;9.98;;;17.70;71.70;;;;;;5078029;28;20024;-80
2021/11/09 13:51:20;;;;;;;13.70;9.38;;;17.60;72.70;;;;;;5063938;28;20044;-80
2021/11/09 13:53:49;;;;;;;18.20;9.15;;;17.50;72.50;;;;;;5077810;28;20063;-80
2021/11/09 13:56:23;;;;;;;13.73;8.85;;;17.40;72.70;;;;;;5077779;28;20041;-81
2021/11/09 13:58:56;;;;;;;12.02;8.90;;;17.30;73.10;;;;;;5076144;28;20028;-80
2021/11/09 14:01:48;;;;;;;14.70;9.88;;;17.30;73.10;;;;;;5077676;28;20071;-80
2021/11/09 14:10:11;;;;;;;12.05;9.27;;;17.00;72.90;;;;;;5077641;28;20537;-81
2021/11/09 14:18:15;;;;;;;13.15;8.25;;;16.90;73.90;;;;;;5077073;28;20036;-81
2021/11/09 14:21:00;;;;;;;13.38;8.23;;;16.80;73.90;;;;;;5077242;28;20028;-80
2021/11/09 14:23:30;;;;;;;11.63;8.50;;;16.80;74.00;;;;;;5077200;28;20040;-80
2021/11/09 14:25:58;;;;;;;12.23;7.88;;;16.70;73.60;;;;;;5077156;28;20449;-81
2021/11/09 14:28:38;;;;;;;9.82;7.38;;;16.60;73.80;;;;;;5076581;28;20009;-80
2021/11/09 14:31:16;;;;;;;12.88;8.27;;;16.60;74.10;;;;;;5077516;28;20467;-81
2021/11/09 14:33:42;;;;;;;11.93;7.57;;;16.60;74.30;;;;;;5074052;28;20127;-80
2021/11/09 14:36:34;;;;;;;11.45;8.10;;;16.50;74.50;;;;;;5076916;28;20588;-80
2021/11/09 14:39:18;;;;;;;13.52;7.70;;;16.40;74.60;;;;;;5081134;28;20066;-81
2021/11/09 14:42:04;;;;;;;11.70;7.78;;;16.40;74.60;;;;;;5081525;28;20108;-81
2021/11/09 14:47:53;;;;;;;11.82;7.50;;;16.40;75.00;;;;;;5081418;28;20055;-81
2021/11/09 14:53:22;;;;;;;11.70;6.80;;;16.20;75.00;;;;;;5068479;28;20491;-81
2021/11/09 14:55:57;;;;;;;10.98;6.07;;;16.20;74.00;;;;;;5080974;28;20029;-81
2021/11/09 14:58:27;;;;;;;12.60;5.90;;;16.20;74.40;;;;;;5080889;28;20021;-81
2021/11/09 15:00:57;;;;;;;12.73;5.88;;;16.10;74.90;;;;;;5080973;28;20024;-81
2021/11/09 15:03:23;;;;;;;11.82;5.53;;;16.10;73.70;;;;;;5081038;28;20077;-81
2021/11/09 15:05:51;;;;;;;9.48;5.32;;;16.10;74.60;;;;;;5079406;28;20028;-80
2021/11/09 15:10:55;;;;;;;12.05;4.97;;;16.10;75.50;;;;;;5080886;28;20074;-80
2021/11/09 15:27:26;;;;;;;9.82;6.35;;;15.90;76.20;;;;;;5073362;28;20031;-81
2021/11/09 15:32:33;;;;;;;9.65;6.13;;;15.70;76.10;;;;;;5080385;28;20024;-81
2021/11/09 15:37:48;;;;;;;10.00;5.72;;;15.60;76.50;;;;;;5080153;28;20094;-81
2021/11/09 15:40:16;;;;;;;8.57;5.03;;;15.50;76.50;;;;;;5080266;28;20115;-81
2021/11/09 15:42:42;;;;;;;9.50;6.22;;;15.50;76.90;;;;;;5080069;28;20077;-81
2021/11/09 15:45:10;;;;;;;10.63;6.80;;;15.40;77.10;;;;;;5080105;28;20398;-81